sensor_id;sensor_type;location;lat;lon;timestamp;P1;durP1;ratioP1;P2;durP2;ratioP2
4601;SDS011;2313;48.552;9.370;2022-10-04T00:03:04;20.83;;;9.73;;
4601;SDS011;2313;48.552;9.370;2022-10-04T00:05:34;15.03;;;9.80;;
4601;SDS011;2313;48.552;9.370;2022-10-04T00:08:03;13.43;;;9.30;;
4601;SDS011;2313;48.552;9.370;2022-10-04T00:11:12;16.40;;;9.50;;
4601;SDS011;2313;48.552;9.370;2022-10-04T00:13:50;10.80;;;8.73;;
4601;SDS011;2313;48.552;9.370;2022-10-04T00:16:40;11.47;;;8.93;;
4601;SDS011;2313;48.552;9.370;2022-10-04T00:25:18;23.73;;;12.57;;
4601;SDS011;2313;48.552;9.370;2022-10-04T00:27:30;21.20;;;11.47;;
4601;SDS011;2313;48.552;9.370;2022-10-04T00:37:56;12.03;;;7.70;;
4601;SDS011;2313;48.552;9.370;2022-10-04T00:40:25;15.60;;;9.97;;
4601;SDS011;2313;48.552;9.370;2022-10-04T00:42:57;18.33;;;10.17;;
4601;SDS011;2313;48.552;9.370;2022-10-04T00:48:07;15.27;;;10.10;;
4601;SDS011;2313;48.552;9.370;2022-10-04T00:50:42;13.87;;;9.47;;
4601;SDS011;2313;48.552;9.370;2022-10-04T00:53:35;17.70;;;9.37;;
4601;SDS011;2313;48.552;9.370;2022-10-04T00:56:13;17.87;;;9.63;;
4601;SDS011;2313;48.552;9.370;2022-10-04T01:01:34;14.93;;;8.80;;
4601;SDS011;2313;48.552;9.370;2022-10-04T01:04:01;12.87;;;8.53;;
4601;SDS011;2313;48.552;9.370;2022-10-04T01:06:36;12.80;;;8.60;;
4601;SDS011;2313;48.552;9.370;2022-10-04T01:09:04;13.73;;;9.37;;
4601;SDS011;2313;48.552;9.370;2022-10-04T01:11:43;15.07;;;8.80;;
4601;SDS011;2313;48.552;9.370;2022-10-04T01:14:25;13.93;;;9.03;;
4601;SDS011;2313;48.552;9.370;2022-10-04T01:17:10;12.87;;;8.53;;
4601;SDS011;2313;48.552;9.370;2022-10-04T01:19:37;18.20;;;9.67;;
4601;SDS011;2313;48.552;9.370;2022-10-04T01:22:13;15.80;;;8.97;;
4601;SDS011;2313;48.552;9.370;2022-10-04T01:24:43;17.77;;;9.17;;
4601;SDS011;2313;48.552;9.370;2022-10-04T01:29:54;15.13;;;7.37;;
4601;SDS011;2313;48.552;9.370;2022-10-04T01:32:20;12.60;;;7.57;;
4601;SDS011;2313;48.552;9.370;2022-10-04T01:34:47;10.33;;;8.03;;
4601;SDS011;2313;48.552;9.370;2022-10-04T01:37:12;16.40;;;8.40;;
4601;SDS011;2313;48.552;9.370;2022-10-04T01:39:38;48.40;;;9.43;;
4601;SDS011;2313;48.552;9.370;2022-10-04T01:44:51;26.47;;;8.43;;
4601;SDS011;2313;48.552;9.370;2022-10-04T01:47:40;15.33;;;7.70;;
4601;SDS011;2313;48.552;9.370;2022-10-04T01:50:17;21.60;;;8.10;;
4601;SDS011;2313;48.552;9.370;2022-10-04T01:52:49;13.87;;;8.90;;
4601;SDS011;2313;48.552;9.370;2022-10-04T01:55:23;10.87;;;8.00;;
4601;SDS011;2313;48.552;9.370;2022-10-04T01:58:00;13.13;;;6.67;;
4601;SDS011;2313;48.552;9.370;2022-10-04T02:00:37;9.40;;;7.17;;
4601;SDS011;2313;48.552;9.370;2022-10-04T02:03:10;13.10;;;7.50;;
4601;SDS011;2313;48.552;9.370;2022-10-04T02:05:43;9.97;;;6.93;;
4601;SDS011;2313;48.552;9.370;2022-10-04T02:08:15;21.00;;;7.80;;
4601;SDS011;2313;48.552;9.370;2022-10-04T02:10:42;40.50;;;8.93;;
4601;SDS011;2313;48.552;9.370;2022-10-04T02:13:10;74.47;;;9.43;;
4601;SDS011;2313;48.552;9.370;2022-10-04T02:15:42;51.80;;;8.20;;
4601;SDS011;2313;48.552;9.370;2022-10-04T02:18:09;65.30;;;8.97;;
4601;SDS011;2313;48.552;9.370;2022-10-04T02:20:37;55.43;;;7.80;;
4601;SDS011;2313;48.552;9.370;2022-10-04T02:23:05;41.90;;;8.80;;
4601;SDS011;2313;48.552;9.370;2022-10-04T02:25:31;37.30;;;8.10;;
4601;SDS011;2313;48.552;9.370;2022-10-04T02:27:57;45.40;;;8.20;;
4601;SDS011;2313;48.552;9.370;2022-10-04T02:30:22;29.83;;;8.20;;
4601;SDS011;2313;48.552;9.370;2022-10-04T02:32:50;31.97;;;7.17;;
4601;SDS011;2313;48.552;9.370;2022-10-04T02:35:28;8.90;;;6.93;;
4601;SDS011;2313;48.552;9.370;2022-10-04T02:38:12;17.87;;;6.97;;
4601;SDS011;2313;48.552;9.370;2022-10-04T02:40:55;18.93;;;7.97;;
4601;SDS011;2313;48.552;9.370;2022-10-04T02:43:50;8.27;;;7.00;;
4601;SDS011;2313;48.552;9.370;2022-10-04T02:46:26;7.57;;;6.30;;
4601;SDS011;2313;48.552;9.370;2022-10-04T02:48:56;10.37;;;6.40;;
4601;SDS011;2313;48.552;9.370;2022-10-04T02:51:26;12.23;;;6.17;;
4601;SDS011;2313;48.552;9.370;2022-10-04T02:56:48;9.77;;;5.97;;
4601;SDS011;2313;48.552;9.370;2022-10-04T02:59:17;9.80;;;6.00;;
4601;SDS011;2313;48.552;9.370;2022-10-04T03:01:53;11.27;;;6.30;;
4601;SDS011;2313;48.552;9.370;2022-10-04T03:04:29;14.87;;;6.60;;
4601;SDS011;2313;48.552;9.370;2022-10-04T03:06:58;9.90;;;6.00;;
4601;SDS011;2313;48.552;9.370;2022-10-04T03:09:28;7.90;;;6.10;;
4601;SDS011;2313;48.552;9.370;2022-10-04T03:11:54;6.90;;;6.20;;
4601;SDS011;2313;48.552;9.370;2022-10-04T03:14:21;12.27;;;7.10;;
4601;SDS011;2313;48.552;9.370;2022-10-04T03:16:50;7.17;;;6.00;;
4601;SDS011;2313;48.552;9.370;2022-10-04T03:19:18;7.10;;;5.70;;
4601;SDS011;2313;48.552;9.370;2022-10-04T03:21:48;16.23;;;6.27;;
4601;SDS011;2313;48.552;9.370;2022-10-04T03:24:26;6.83;;;6.13;;
4601;SDS011;2313;48.552;9.370;2022-10-04T03:26:55;12.70;;;6.43;;
4601;SDS011;2313;48.552;9.370;2022-10-04T03:29:24;14.10;;;6.87;;
4601;SDS011;2313;48.552;9.370;2022-10-04T03:31:52;16.73;;;6.60;;
4601;SDS011;2313;48.552;9.370;2022-10-04T03:34:23;10.03;;;6.60;;
4601;SDS011;2313;48.552;9.370;2022-10-04T03:36:56;12.37;;;7.70;;
4601;SDS011;2313;48.552;9.370;2022-10-04T03:41:52;22.43;;;9.20;;
4601;SDS011;2313;48.552;9.370;2022-10-04T03:44:18;7.00;;;6.10;;
4601;SDS011;2313;48.552;9.370;2022-10-04T03:46:45;14.30;;;6.97;;
4601;SDS011;2313;48.552;9.370;2022-10-04T03:49:13;7.33;;;6.30;;
4601;SDS011;2313;48.552;9.370;2022-10-04T03:51:43;10.23;;;6.57;;
4601;SDS011;2313;48.552;9.370;2022-10-04T03:54:15;7.27;;;5.97;;
4601;SDS011;2313;48.552;9.370;2022-10-04T03:56:45;7.63;;;6.40;;
4601;SDS011;2313;48.552;9.370;2022-10-04T03:59:12;6.13;;;5.33;;
4601;SDS011;2313;48.552;9.370;2022-10-04T04:02:29;7.80;;;5.90;;
4601;SDS011;2313;48.552;9.370;2022-10-04T04:09:28;10.17;;;7.20;;
4601;SDS011;2313;48.552;9.370;2022-10-04T04:12:20;9.20;;;6.63;;
4601;SDS011;2313;48.552;9.370;2022-10-04T04:15:14;10.20;;;7.03;;
4601;SDS011;2313;48.552;9.370;2022-10-04T04:17:49;8.57;;;6.97;;
4601;SDS011;2313;48.552;9.370;2022-10-04T04:22:59;23.97;;;13.20;;
4601;SDS011;2313;48.552;9.370;2022-10-04T04:25:42;12.83;;;9.77;;
4601;SDS011;2313;48.552;9.370;2022-10-04T04:28:30;8.43;;;6.60;;
4601;SDS011;2313;48.552;9.370;2022-10-04T04:31:00;12.80;;;7.80;;
4601;SDS011;2313;48.552;9.370;2022-10-04T04:36:15;9.47;;;6.63;;
4601;SDS011;2313;48.552;9.370;2022-10-04T04:38:41;10.73;;;6.97;;
4601;SDS011;2313;48.552;9.370;2022-10-04T04:41:27;12.60;;;7.80;;
4601;SDS011;2313;48.552;9.370;2022-10-04T04:43:56;7.50;;;6.70;;
4601;SDS011;2313;48.552;9.370;2022-10-04T04:46:22;8.17;;;6.73;;
4601;SDS011;2313;48.552;9.370;2022-10-04T04:48:50;11.50;;;7.03;;
4601;SDS011;2313;48.552;9.370;2022-10-04T04:51:24;9.07;;;7.03;;
4601;SDS011;2313;48.552;9.370;2022-10-04T04:53:50;10.37;;;7.73;;
4601;SDS011;2313;48.552;9.370;2022-10-04T04:56:18;9.93;;;6.90;;
4601;SDS011;2313;48.552;9.370;2022-10-04T04:58:47;13.93;;;7.33;;
4601;SDS011;2313;48.552;9.370;2022-10-04T05:04:37;17.03;;;8.97;;
4601;SDS011;2313;48.552;9.370;2022-10-04T05:06:58;12.40;;;7.03;;
4601;SDS011;2313;48.552;9.370;2022-10-04T05:12:09;7.37;;;5.73;;
4601;SDS011;2313;48.552;9.370;2022-10-04T05:14:44;12.30;;;6.10;;
4601;SDS011;2313;48.552;9.370;2022-10-04T05:17:17;9.57;;;5.20;;
4601;SDS011;2313;48.552;9.370;2022-10-04T05:19:44;12.47;;;7.77;;
4601;SDS011;2313;48.552;9.370;2022-10-04T05:22:11;10.47;;;8.20;;
4601;SDS011;2313;48.552;9.370;2022-10-04T05:24:39;11.77;;;7.70;;
4601;SDS011;2313;48.552;9.370;2022-10-04T05:27:12;11.63;;;8.00;;
4601;SDS011;2313;48.552;9.370;2022-10-04T05:29:45;11.27;;;8.07;;
4601;SDS011;2313;48.552;9.370;2022-10-04T05:33:00;11.40;;;7.00;;
4601;SDS011;2313;48.552;9.370;2022-10-04T05:35:52;9.10;;;7.20;;
4601;SDS011;2313;48.552;9.370;2022-10-04T05:38:32;10.63;;;6.57;;
4601;SDS011;2313;48.552;9.370;2022-10-04T05:41:22;22.27;;;7.83;;
4601;SDS011;2313;48.552;9.370;2022-10-04T05:43:55;17.07;;;7.63;;
4601;SDS011;2313;48.552;9.370;2022-10-04T05:48:54;21.17;;;5.40;;
4601;SDS011;2313;48.552;9.370;2022-10-04T05:51:24;13.93;;;5.57;;
4601;SDS011;2313;48.552;9.370;2022-10-04T05:54:00;43.83;;;7.33;;
4601;SDS011;2313;48.552;9.370;2022-10-04T05:56:46;6.70;;;5.77;;
4601;SDS011;2313;48.552;9.370;2022-10-04T05:59:28;13.43;;;5.70;;
4601;SDS011;2313;48.552;9.370;2022-10-04T06:19:43;7.87;;;4.57;;
4601;SDS011;2313;48.552;9.370;2022-10-04T06:22:20;4.43;;;4.00;;
4601;SDS011;2313;48.552;9.370;2022-10-04T06:24:48;16.07;;;8.07;;
4601;SDS011;2313;48.552;9.370;2022-10-04T06:27:59;4.93;;;4.27;;
4601;SDS011;2313;48.552;9.370;2022-10-04T06:30:22;4.67;;;4.27;;
4601;SDS011;2313;48.552;9.370;2022-10-04T06:48:37;8.30;;;4.83;;
4601;SDS011;2313;48.552;9.370;2022-10-04T06:51:30;8.60;;;6.27;;
4601;SDS011;2313;48.552;9.370;2022-10-04T06:54:18;8.37;;;5.87;;
4601;SDS011;2313;48.552;9.370;2022-10-04T07:02:18;7.60;;;6.13;;
4601;SDS011;2313;48.552;9.370;2022-10-04T07:05:17;7.30;;;5.47;;
4601;SDS011;2313;48.552;9.370;2022-10-04T07:07:44;6.70;;;5.37;;
4601;SDS011;2313;48.552;9.370;2022-10-04T07:10:21;5.73;;;5.13;;
4601;SDS011;2313;48.552;9.370;2022-10-04T07:13:03;6.50;;;5.30;;
4601;SDS011;2313;48.552;9.370;2022-10-04T07:18:11;6.10;;;5.37;;
4601;SDS011;2313;48.552;9.370;2022-10-04T07:20:40;6.47;;;5.50;;
4601;SDS011;2313;48.552;9.370;2022-10-04T07:23:11;16.33;;;4.83;;
4601;SDS011;2313;48.552;9.370;2022-10-04T07:25:44;6.43;;;4.80;;
4601;SDS011;2313;48.552;9.370;2022-10-04T07:28:15;6.90;;;5.53;;
4601;SDS011;2313;48.552;9.370;2022-10-04T07:31:08;7.17;;;5.10;;
4601;SDS011;2313;48.552;9.370;2022-10-04T07:33:42;6.50;;;5.20;;
4601;SDS011;2313;48.552;9.370;2022-10-04T07:36:18;7.97;;;5.60;;
4601;SDS011;2313;48.552;9.370;2022-10-04T07:38:58;7.63;;;5.70;;
4601;SDS011;2313;48.552;9.370;2022-10-04T07:44:02;5.47;;;4.63;;
4601;SDS011;2313;48.552;9.370;2022-10-04T07:49:27;8.07;;;4.50;;
4601;SDS011;2313;48.552;9.370;2022-10-04T07:54:42;11.23;;;4.67;;
4601;SDS011;2313;48.552;9.370;2022-10-04T07:57:21;4.67;;;4.17;;
4601;SDS011;2313;48.552;9.370;2022-10-04T08:00:04;5.87;;;4.30;;
4601;SDS011;2313;48.552;9.370;2022-10-04T08:05:54;8.53;;;5.10;;
4601;SDS011;2313;48.552;9.370;2022-10-04T08:08:52;5.80;;;4.77;;
4601;SDS011;2313;48.552;9.370;2022-10-04T08:11:44;6.80;;;5.10;;
4601;SDS011;2313;48.552;9.370;2022-10-04T08:14:45;5.13;;;4.70;;
4601;SDS011;2313;48.552;9.370;2022-10-04T08:31:30;11.13;;;5.73;;
4601;SDS011;2313;48.552;9.370;2022-10-04T08:43:25;5.30;;;3.87;;
4601;SDS011;2313;48.552;9.370;2022-10-04T08:55:01;11.73;;;7.57;;
4601;SDS011;2313;48.552;9.370;2022-10-04T09:11:19;5.83;;;5.23;;
4601;SDS011;2313;48.552;9.370;2022-10-04T09:16:30;6.73;;;5.03;;
4601;SDS011;2313;48.552;9.370;2022-10-04T09:41:36;7.63;;;4.07;;
4601;SDS011;2313;48.552;9.370;2022-10-04T09:47:29;7.33;;;4.47;;
4601;SDS011;2313;48.552;9.370;2022-10-04T09:53:18;4.83;;;3.57;;
4601;SDS011;2313;48.552;9.370;2022-10-04T10:18:59;11.50;;;3.60;;
4601;SDS011;2313;48.552;9.370;2022-10-04T10:24:44;4.60;;;3.17;;
4601;SDS011;2313;48.552;9.370;2022-10-04T10:27:30;5.10;;;3.00;;
4601;SDS011;2313;48.552;9.370;2022-10-04T10:30:03;5.63;;;3.07;;
4601;SDS011;2313;48.552;9.370;2022-10-04T10:32:55;8.53;;;3.87;;
4601;SDS011;2313;48.552;9.370;2022-10-04T10:50:42;8.87;;;3.27;;
4601;SDS011;2313;48.552;9.370;2022-10-04T10:59:51;5.87;;;3.20;;
4601;SDS011;2313;48.552;9.370;2022-10-04T11:27:40;7.33;;;3.40;;
4601;SDS011;2313;48.552;9.370;2022-10-04T11:41:42;2.97;;;2.43;;
4601;SDS011;2313;48.552;9.370;2022-10-04T11:47:27;6.97;;;2.83;;
4601;SDS011;2313;48.552;9.370;2022-10-04T11:51:17;6.30;;;2.97;;
4601;SDS011;2313;48.552;9.370;2022-10-04T11:53:37;7.03;;;2.60;;
4601;SDS011;2313;48.552;9.370;2022-10-04T11:56:12;4.03;;;2.80;;
4601;SDS011;2313;48.552;9.370;2022-10-04T12:01:37;8.23;;;3.70;;
4601;SDS011;2313;48.552;9.370;2022-10-04T12:09:39;5.30;;;3.57;;
4601;SDS011;2313;48.552;9.370;2022-10-04T12:12:26;5.07;;;2.80;;
4601;SDS011;2313;48.552;9.370;2022-10-04T12:18:17;3.90;;;2.10;;
4601;SDS011;2313;48.552;9.370;2022-10-04T12:21:19;9.57;;;2.77;;
4601;SDS011;2313;48.552;9.370;2022-10-04T12:26:40;7.43;;;2.93;;
4601;SDS011;2313;48.552;9.370;2022-10-04T12:35:28;4.07;;;2.70;;
4601;SDS011;2313;48.552;9.370;2022-10-04T12:52:30;7.77;;;3.07;;
4601;SDS011;2313;48.552;9.370;2022-10-04T12:58:04;5.30;;;2.70;;
4601;SDS011;2313;48.552;9.370;2022-10-04T13:00:40;9.70;;;3.33;;
4601;SDS011;2313;48.552;9.370;2022-10-04T13:10:42;3.90;;;2.57;;
4601;SDS011;2313;48.552;9.370;2022-10-04T13:13:17;7.43;;;2.87;;
4601;SDS011;2313;48.552;9.370;2022-10-04T13:18:58;7.90;;;2.50;;
4601;SDS011;2313;48.552;9.370;2022-10-04T13:27:02;27.57;;;3.57;;
4601;SDS011;2313;48.552;9.370;2022-10-04T13:29:35;7.43;;;2.90;;
4601;SDS011;2313;48.552;9.370;2022-10-04T13:32:56;6.50;;;2.87;;
4601;SDS011;2313;48.552;9.370;2022-10-04T13:35:13;7.53;;;3.30;;
4601;SDS011;2313;48.552;9.370;2022-10-04T13:46:36;3.37;;;3.00;;
4601;SDS011;2313;48.552;9.370;2022-10-04T13:52:11;4.87;;;2.90;;
4601;SDS011;2313;48.552;9.370;2022-10-04T13:55:18;9.33;;;3.13;;
4601;SDS011;2313;48.552;9.370;2022-10-04T14:00:50;4.53;;;3.50;;
4601;SDS011;2313;48.552;9.370;2022-10-04T14:06:34;8.33;;;3.67;;
4601;SDS011;2313;48.552;9.370;2022-10-04T14:09:25;7.60;;;3.07;;
4601;SDS011;2313;48.552;9.370;2022-10-04T14:12:13;8.20;;;2.80;;
4601;SDS011;2313;48.552;9.370;2022-10-04T14:27:14;4.50;;;2.80;;
4601;SDS011;2313;48.552;9.370;2022-10-04T14:30:00;8.20;;;2.80;;
4601;SDS011;2313;48.552;9.370;2022-10-04T14:39:06;5.30;;;3.10;;
4601;SDS011;2313;48.552;9.370;2022-10-04T14:41:57;5.03;;;2.60;;
4601;SDS011;2313;48.552;9.370;2022-10-04T14:44:58;4.70;;;2.60;;
4601;SDS011;2313;48.552;9.370;2022-10-04T14:50:53;4.90;;;2.90;;
4601;SDS011;2313;48.552;9.370;2022-10-04T14:56:30;5.13;;;2.70;;
4601;SDS011;2313;48.552;9.370;2022-10-04T14:59:22;4.07;;;2.40;;
4601;SDS011;2313;48.552;9.370;2022-10-04T15:02:18;15.00;;;2.70;;
4601;SDS011;2313;48.552;9.370;2022-10-04T15:07:47;3.60;;;2.50;;
4601;SDS011;2313;48.552;9.370;2022-10-04T15:10:19;3.20;;;2.40;;
4601;SDS011;2313;48.552;9.370;2022-10-04T15:15:32;12.63;;;2.53;;
4601;SDS011;2313;48.552;9.370;2022-10-04T15:18:12;6.10;;;2.40;;
4601;SDS011;2313;48.552;9.370;2022-10-04T15:43:30;13.33;;;3.20;;
4601;SDS011;2313;48.552;9.370;2022-10-04T15:46:24;4.93;;;2.03;;
4601;SDS011;2313;48.552;9.370;2022-10-04T15:49:15;4.60;;;2.37;;
4601;SDS011;2313;48.552;9.370;2022-10-04T15:52:10;6.50;;;2.90;;
4601;SDS011;2313;48.552;9.370;2022-10-04T15:57:54;7.00;;;2.80;;
4601;SDS011;2313;48.552;9.370;2022-10-04T16:04:04;3.63;;;2.67;;
4601;SDS011;2313;48.552;9.370;2022-10-04T16:06:54;6.53;;;2.87;;
4601;SDS011;2313;48.552;9.370;2022-10-04T16:09:42;7.33;;;2.77;;
4601;SDS011;2313;48.552;9.370;2022-10-04T16:15:17;5.87;;;2.60;;
4601;SDS011;2313;48.552;9.370;2022-10-04T16:23:20;3.27;;;2.37;;
4601;SDS011;2313;48.552;9.370;2022-10-04T16:25:48;8.53;;;2.80;;
4601;SDS011;2313;48.552;9.370;2022-10-04T16:31:16;3.47;;;2.67;;
4601;SDS011;2313;48.552;9.370;2022-10-04T16:34:24;7.17;;;3.60;;
4601;SDS011;2313;48.552;9.370;2022-10-04T16:56:30;3.57;;;1.40;;
4601;SDS011;2313;48.552;9.370;2022-10-04T17:02:20;1.43;;;1.33;;
4601;SDS011;2313;48.552;9.370;2022-10-04T17:05:30;1.70;;;1.50;;
4601;SDS011;2313;48.552;9.370;2022-10-04T17:13:34;2.33;;;1.57;;
4601;SDS011;2313;48.552;9.370;2022-10-04T17:16:11;3.23;;;1.53;;
4601;SDS011;2313;48.552;9.370;2022-10-04T17:38:29;3.10;;;2.80;;
4601;SDS011;2313;48.552;9.370;2022-10-04T17:47:08;3.63;;;3.03;;
4601;SDS011;2313;48.552;9.370;2022-10-04T17:49:53;4.13;;;3.17;;
4601;SDS011;2313;48.552;9.370;2022-10-04T17:52:53;2.83;;;2.63;;
4601;SDS011;2313;48.552;9.370;2022-10-04T17:58:21;8.13;;;5.50;;
4601;SDS011;2313;48.552;9.370;2022-10-04T18:01:03;7.87;;;3.43;;
4601;SDS011;2313;48.552;9.370;2022-10-04T18:03:32;4.33;;;2.97;;
4601;SDS011;2313;48.552;9.370;2022-10-04T18:06:49;6.37;;;3.83;;
4601;SDS011;2313;48.552;9.370;2022-10-04T18:11:58;8.10;;;3.57;;
4601;SDS011;2313;48.552;9.370;2022-10-04T18:17:43;4.67;;;3.60;;
4601;SDS011;2313;48.552;9.370;2022-10-04T18:20:18;6.07;;;3.83;;
4601;SDS011;2313;48.552;9.370;2022-10-04T18:22:57;5.03;;;4.00;;
4601;SDS011;2313;48.552;9.370;2022-10-04T18:25:25;4.83;;;3.87;;
4601;SDS011;2313;48.552;9.370;2022-10-04T18:30:32;4.10;;;3.50;;
4601;SDS011;2313;48.552;9.370;2022-10-04T18:32:59;5.40;;;3.37;;
4601;SDS011;2313;48.552;9.370;2022-10-04T18:38:40;3.77;;;3.50;;
4601;SDS011;2313;48.552;9.370;2022-10-04T18:40:53;4.93;;;3.70;;
4601;SDS011;2313;48.552;9.370;2022-10-04T18:43:28;7.07;;;3.70;;
4601;SDS011;2313;48.552;9.370;2022-10-04T18:46:24;6.37;;;3.60;;
4601;SDS011;2313;48.552;9.370;2022-10-04T18:49:20;9.83;;;4.40;;
4601;SDS011;2313;48.552;9.370;2022-10-04T18:54:35;9.03;;;3.67;;
4601;SDS011;2313;48.552;9.370;2022-10-04T19:00:19;7.40;;;3.50;;
4601;SDS011;2313;48.552;9.370;2022-10-04T19:03:16;5.33;;;4.33;;
4601;SDS011;2313;48.552;9.370;2022-10-04T19:06:18;5.67;;;3.63;;
4601;SDS011;2313;48.552;9.370;2022-10-04T19:14:29;5.93;;;3.57;;
4601;SDS011;2313;48.552;9.370;2022-10-04T19:17:15;5.70;;;3.50;;
4601;SDS011;2313;48.552;9.370;2022-10-04T19:22:31;5.37;;;3.53;;
4601;SDS011;2313;48.552;9.370;2022-10-04T19:30:50;7.10;;;3.50;;
4601;SDS011;2313;48.552;9.370;2022-10-04T19:52:39;6.93;;;3.63;;
4601;SDS011;2313;48.552;9.370;2022-10-04T20:00:41;6.80;;;3.10;;
4601;SDS011;2313;48.552;9.370;2022-10-04T20:03:11;6.53;;;3.67;;
4601;SDS011;2313;48.552;9.370;2022-10-04T20:05:47;4.93;;;3.47;;
4601;SDS011;2313;48.552;9.370;2022-10-04T20:08:15;64.17;;;26.83;;
4601;SDS011;2313;48.552;9.370;2022-10-04T20:13:44;6.53;;;4.60;;
4601;SDS011;2313;48.552;9.370;2022-10-04T20:21:47;10.30;;;6.70;;
4601;SDS011;2313;48.552;9.370;2022-10-04T20:27:00;6.37;;;3.97;;
4601;SDS011;2313;48.552;9.370;2022-10-04T20:32:08;3.73;;;3.43;;
4601;SDS011;2313;48.552;9.370;2022-10-04T20:34:46;5.33;;;4.83;;
4601;SDS011;2313;48.552;9.370;2022-10-04T20:37:13;4.60;;;3.97;;
4601;SDS011;2313;48.552;9.370;2022-10-04T20:44:53;5.77;;;3.47;;
4601;SDS011;2313;48.552;9.370;2022-10-04T20:47:32;6.17;;;3.80;;
4601;SDS011;2313;48.552;9.370;2022-10-04T20:52:47;6.03;;;4.27;;
4601;SDS011;2313;48.552;9.370;2022-10-04T20:55:19;5.03;;;3.70;;
4601;SDS011;2313;48.552;9.370;2022-10-04T20:58:02;7.30;;;3.77;;
4601;SDS011;2313;48.552;9.370;2022-10-04T21:00:54;4.53;;;3.43;;
4601;SDS011;2313;48.552;9.370;2022-10-04T21:03:21;6.20;;;4.00;;
4601;SDS011;2313;48.552;9.370;2022-10-04T21:05:58;12.73;;;3.57;;
4601;SDS011;2313;48.552;9.370;2022-10-04T21:08:25;5.13;;;3.80;;
4601;SDS011;2313;48.552;9.370;2022-10-04T21:11:05;3.70;;;3.30;;
4601;SDS011;2313;48.552;9.370;2022-10-04T21:14:08;6.63;;;3.60;;
4601;SDS011;2313;48.552;9.370;2022-10-04T21:16:38;4.23;;;3.83;;
4601;SDS011;2313;48.552;9.370;2022-10-04T21:22:00;3.80;;;3.17;;
4601;SDS011;2313;48.552;9.370;2022-10-04T21:27:03;6.53;;;4.27;;
4601;SDS011;2313;48.552;9.370;2022-10-04T21:29:30;5.63;;;3.90;;
4601;SDS011;2313;48.552;9.370;2022-10-04T21:31:56;6.70;;;3.30;;
4601;SDS011;2313;48.552;9.370;2022-10-04T21:34:22;4.33;;;3.40;;
4601;SDS011;2313;48.552;9.370;2022-10-04T21:36:48;6.13;;;3.67;;
4601;SDS011;2313;48.552;9.370;2022-10-04T21:39:14;8.10;;;3.83;;
4601;SDS011;2313;48.552;9.370;2022-10-04T21:41:40;3.77;;;3.20;;
4601;SDS011;2313;48.552;9.370;2022-10-04T21:44:05;4.73;;;3.53;;
4601;SDS011;2313;48.552;9.370;2022-10-04T21:46:31;5.93;;;3.80;;
4601;SDS011;2313;48.552;9.370;2022-10-04T21:48:57;6.30;;;3.93;;
4601;SDS011;2313;48.552;9.370;2022-10-04T21:51:23;6.40;;;3.30;;
4601;SDS011;2313;48.552;9.370;2022-10-04T21:53:48;7.40;;;3.47;;
4601;SDS011;2313;48.552;9.370;2022-10-04T21:56:14;4.63;;;3.53;;
4601;SDS011;2313;48.552;9.370;2022-10-04T21:58:40;4.73;;;3.20;;
4601;SDS011;2313;48.552;9.370;2022-10-04T22:01:05;4.13;;;3.00;;
4601;SDS011;2313;48.552;9.370;2022-10-04T22:03:32;9.40;;;3.47;;
4601;SDS011;2313;48.552;9.370;2022-10-04T22:05:57;5.17;;;3.83;;
4601;SDS011;2313;48.552;9.370;2022-10-04T22:08:23;8.07;;;3.73;;
4601;SDS011;2313;48.552;9.370;2022-10-04T22:10:48;4.73;;;3.20;;
4601;SDS011;2313;48.552;9.370;2022-10-04T22:13:14;4.33;;;3.50;;
4601;SDS011;2313;48.552;9.370;2022-10-04T22:15:40;3.60;;;3.30;;
4601;SDS011;2313;48.552;9.370;2022-10-04T22:18:05;6.10;;;3.07;;
4601;SDS011;2313;48.552;9.370;2022-10-04T22:20:31;4.17;;;3.57;;
4601;SDS011;2313;48.552;9.370;2022-10-04T22:22:57;5.00;;;3.67;;
4601;SDS011;2313;48.552;9.370;2022-10-04T22:25:24;9.13;;;2.93;;
4601;SDS011;2313;48.552;9.370;2022-10-04T22:27:51;4.73;;;3.40;;
4601;SDS011;2313;48.552;9.370;2022-10-04T22:30:22;6.43;;;5.00;;
4601;SDS011;2313;48.552;9.370;2022-10-04T22:32:50;8.87;;;5.00;;
4601;SDS011;2313;48.552;9.370;2022-10-04T22:35:19;8.90;;;6.10;;
4601;SDS011;2313;48.552;9.370;2022-10-04T22:37:45;9.67;;;5.20;;
4601;SDS011;2313;48.552;9.370;2022-10-04T22:40:13;5.20;;;3.63;;
4601;SDS011;2313;48.552;9.370;2022-10-04T22:42:48;4.20;;;3.80;;
4601;SDS011;2313;48.552;9.370;2022-10-04T22:45:29;3.67;;;3.37;;
4601;SDS011;2313;48.552;9.370;2022-10-04T22:47:58;3.43;;;2.90;;
4601;SDS011;2313;48.552;9.370;2022-10-04T22:50:31;4.00;;;2.63;;
4601;SDS011;2313;48.552;9.370;2022-10-04T22:53:04;3.07;;;2.87;;
4601;SDS011;2313;48.552;9.370;2022-10-04T22:55:40;3.07;;;2.60;;
4601;SDS011;2313;48.552;9.370;2022-10-04T22:58:07;5.87;;;3.50;;
4601;SDS011;2313;48.552;9.370;2022-10-04T23:00:36;3.73;;;2.77;;
4601;SDS011;2313;48.552;9.370;2022-10-04T23:03:04;2.73;;;2.53;;
4601;SDS011;2313;48.552;9.370;2022-10-04T23:05:38;3.67;;;2.80;;
4601;SDS011;2313;48.552;9.370;2022-10-04T23:08:04;3.40;;;2.73;;
4601;SDS011;2313;48.552;9.370;2022-10-04T23:10:29;3.50;;;2.90;;
4601;SDS011;2313;48.552;9.370;2022-10-04T23:12:55;5.13;;;3.10;;
4601;SDS011;2313;48.552;9.370;2022-10-04T23:15:20;3.77;;;2.83;;
4601;SDS011;2313;48.552;9.370;2022-10-04T23:17:55;5.60;;;2.80;;
4601;SDS011;2313;48.552;9.370;2022-10-04T23:20:21;6.13;;;3.50;;
4601;SDS011;2313;48.552;9.370;2022-10-04T23:22:48;4.63;;;2.47;;
4601;SDS011;2313;48.552;9.370;2022-10-04T23:25:16;3.13;;;2.83;;
4601;SDS011;2313;48.552;9.370;2022-10-04T23:27:44;4.87;;;3.40;;
4601;SDS011;2313;48.552;9.370;2022-10-04T23:30:14;2.93;;;2.73;;
4601;SDS011;2313;48.552;9.370;2022-10-04T23:32:46;7.67;;;2.73;;
4601;SDS011;2313;48.552;9.370;2022-10-04T23:35:15;4.60;;;2.40;;
4601;SDS011;2313;48.552;9.370;2022-10-04T23:37:43;4.33;;;2.90;;
4601;SDS011;2313;48.552;9.370;2022-10-04T23:40:14;3.83;;;3.13;;
4601;SDS011;2313;48.552;9.370;2022-10-04T23:42:41;10.00;;;3.07;;
4601;SDS011;2313;48.552;9.370;2022-10-04T23:45:10;2.90;;;2.40;;
4601;SDS011;2313;48.552;9.370;2022-10-04T23:47:46;7.03;;;2.23;;
4601;SDS011;2313;48.552;9.370;2022-10-04T23:50:17;2.20;;;2.07;;
4601;SDS011;2313;48.552;9.370;2022-10-04T23:53:04;2.53;;;2.33;;
4601;SDS011;2313;48.552;9.370;2022-10-04T23:55:36;3.70;;;2.73;;
4601;SDS011;2313;48.552;9.370;2022-10-04T23:58:14;1.90;;;1.80;;
